Time;durP1;ratioP1;P1;durP2;ratioP2;P2;SDS_P1;SDS_P2;PMS_P1;PMS_P2;Temp;Humidity;BMP_temperature;BMP_pressure;BME280_temperature;BME280_humidity;BME280_pressure;Samples;Min_cycle;Max_cycle;Signal;HPM_P1;HPM_P2
2020/12/13 00:00:45;;;;;;;7.33;3.50;;;;;;;2.48;85.30;99965.98;127395;1092;104433;-80
2020/12/13 00:03:14;;;;;;;5.73;3.47;;;;;;;2.49;85.63;99967.75;127346;1091;104493;-80
2020/12/13 00:05:43;;;;;;;8.00;3.80;;;;;;;2.48;85.35;99963.39;127382;1091;104506;-79
2020/12/13 00:08:11;;;;;;;9.47;4.20;;;;;;;2.47;85.87;99961.59;127383;1092;104433;-80
2020/12/13 00:10:40;;;;;;;7.57;3.80;;;;;;;2.47;85.48;99965.06;127383;1091;104490;-79
2020/12/13 00:13:11;;;;;;;7.43;3.40;;;;;;;2.48;86.05;99968.57;127387;1092;104577;-79
2020/12/13 00:15:40;;;;;;;8.10;4.00;;;;;;;2.48;85.45;99961.69;127379;1091;104427;-80
2020/12/13 00:18:09;;;;;;;7.67;3.77;;;;;;;2.50;85.45;99965.25;127379;1092;104461;-80
2020/12/13 00:20:38;;;;;;;7.77;3.77;;;;;;;2.53;85.01;99963.66;127389;1092;104429;-82
2020/12/13 00:23:07;;;;;;;7.33;4.07;;;;;;;2.57;85.97;99973.38;127426;1092;104558;-80
2020/12/13 00:25:36;;;;;;;7.47;3.80;;;;;;;2.59;86.31;99971.80;127367;1091;104566;-80
2020/12/13 00:28:05;;;;;;;7.67;3.50;;;;;;;2.58;86.06;99962.23;127362;1091;104484;-81
2020/12/13 00:30:34;;;;;;;9.23;4.63;;;;;;;2.55;86.01;99959.45;127403;1092;104490;-80
2020/12/13 00:33:03;;;;;;;7.87;3.93;;;;;;;2.54;86.13;99963.75;127413;1092;104484;-79
2020/12/13 00:35:32;;;;;;;9.77;4.67;;;;;;;2.55;86.07;99957.75;127423;1092;104936;-79
2020/12/13 00:38:01;;;;;;;9.57;4.50;;;;;;;2.59;86.09;99953.66;127410;1092;104442;-80
2020/12/13 00:40:30;;;;;;;10.47;4.47;;;;;;;2.64;86.06;99949.64;127375;1092;104557;-80
2020/12/13 00:42:59;;;;;;;9.23;4.57;;;;;;;2.68;85.90;99951.58;127380;1091;104554;-80
2020/12/13 00:45:28;;;;;;;10.17;4.47;;;;;;;2.70;85.43;99947.41;127335;1091;104439;-80
2020/12/13 00:47:57;;;;;;;9.20;4.50;;;;;;;2.69;85.88;99945.61;127371;1092;104430;-80
2020/12/13 00:50:26;;;;;;;10.70;4.53;;;;;;;2.69;85.48;99943.89;127343;1092;104451;-79
2020/12/13 00:52:55;;;;;;;7.17;3.93;;;;;;;2.72;86.26;99943.20;127269;1092;104510;-80
2020/12/13 00:55:24;;;;;;;9.10;4.73;;;;;;;2.75;86.27;99950.27;127357;1092;104433;-82
2020/12/13 00:57:53;;;;;;;9.97;4.80;;;;;;;2.78;86.19;99947.85;127380;1092;104494;-80
2020/12/13 01:00:22;;;;;;;9.07;4.60;;;;;;;2.80;85.63;99947.11;127362;1092;104436;-84
2020/12/13 01:02:52;;;;;;;9.37;4.53;;;;;;;2.85;86.19;99939.60;127342;1092;104487;-79
2020/12/13 01:05:21;;;;;;;8.17;4.00;;;;;;;2.87;86.24;99938.90;127310;1092;104429;-79
2020/12/13 01:07:50;;;;;;;9.73;4.90;;;;;;;2.87;85.33;99938.02;127366;1091;104432;-85
2020/12/13 01:10:20;;;;;;;9.10;4.73;;;;;;;2.89;85.48;99931.21;127378;1092;104435;-81
2020/12/13 01:12:49;;;;;;;10.67;5.13;;;;;;;2.91;85.57;99926.12;127387;1092;104433;-80
2020/12/13 01:15:19;;;;;;;10.07;5.33;;;;;;;2.93;85.85;99932.27;127377;1092;104621;-80
2020/12/13 01:17:49;;;;;;;12.03;5.50;;;;;;;2.95;86.23;99931.56;127361;1091;104669;-83
2020/12/13 01:20:18;;;;;;;11.00;5.50;;;;;;;3.00;86.45;99931.83;127365;1092;104429;-82
2020/12/13 01:22:47;;;;;;;9.43;4.90;;;;;;;3.02;85.56;99930.20;127314;1092;104436;-79
2020/12/13 01:25:17;;;;;;;11.03;5.17;;;;;;;3.03;85.55;99938.06;127371;1092;104439;-80
2020/12/13 01:27:46;;;;;;;11.77;5.57;;;;;;;3.02;85.47;99931.12;127370;1092;104574;-81
2020/12/13 01:30:15;;;;;;;11.03;4.90;;;;;;;3.05;85.49;99931.29;127362;1092;104410;-80
2020/12/13 01:32:44;;;;;;;10.33;4.77;;;;;;;3.06;85.63;99929.58;127381;1091;104441;-81
2020/12/13 01:35:13;;;;;;;13.87;5.87;;;;;;;3.08;85.71;99921.89;127352;1092;104440;-80
2020/12/13 01:37:42;;;;;;;7.10;3.73;;;;;;;3.11;85.89;99922.95;127390;1092;104430;-80
2020/12/13 01:40:11;;;;;;;13.40;6.10;;;;;;;3.12;85.37;99921.27;127321;1092;104491;-82
2020/12/13 01:42:41;;;;;;;12.53;5.77;;;;;;;3.16;86.49;99925.80;127365;1092;104429;-79
2020/12/13 01:45:18;;;;;;;13.90;5.63;;;;;;;3.18;85.87;99914.72;127400;1092;104554;-83
2020/12/13 01:47:51;;;;;;;16.17;6.40;;;;;;;3.18;85.28;99919.90;127385;1091;104621;-80
2020/12/13 01:53:15;;;;;;;11.57;5.17;;;;;;;3.20;85.55;99923.46;127353;1092;104594;-83
2020/12/13 01:55:46;;;;;;;12.97;5.20;;;;;;;3.23;86.08;99922.75;127372;1092;104494;-81
2020/12/13 01:58:21;;;;;;;15.03;6.47;;;;;;;3.25;85.90;99918.53;127394;1092;104435;-83
2020/12/13 02:00:53;;;;;;;12.17;5.43;;;;;;;3.26;85.85;99922.92;127397;1092;104445;-81
2020/12/13 02:03:25;;;;;;;12.60;5.23;;;;;;;3.27;86.21;99928.98;127368;1092;104478;-80
2020/12/13 02:06:01;;;;;;;13.37;6.50;;;;;;;3.29;86.44;99923.09;127410;1091;104546;-83
2020/12/13 02:08:39;;;;;;;12.33;5.60;;;;;;;3.33;86.41;99913.77;127364;1092;104554;-84
2020/12/13 02:11:09;;;;;;;13.67;5.57;;;;;;;3.35;85.88;99920.84;127405;1093;104567;-81
2020/12/13 02:13:38;;;;;;;14.20;5.83;;;;;;;3.36;86.76;99920.01;127338;1092;104552;-81
2020/12/13 02:16:08;;;;;;;12.43;5.60;;;;;;;3.38;85.81;99921.01;127394;1092;104490;-80
2020/12/13 02:18:37;;;;;;;10.27;5.03;;;;;;;3.40;85.73;99921.09;127402;1092;104436;-80
2020/12/13 02:21:07;;;;;;;13.25;5.90;;;;;;;3.40;86.13;99924.56;127356;1092;104580;-81
2020/12/13 02:23:37;;;;;;;15.57;6.07;;;;;;;3.40;86.32;99924.56;127394;1092;104423;-81
2020/12/13 02:26:06;;;;;;;12.80;5.60;;;;;;;3.40;85.51;99911.59;127381;1092;104554;-80
2020/12/13 02:28:36;;;;;;;14.90;6.20;;;;;;;3.35;85.91;99907.88;127412;1091;104615;-82
2020/12/13 02:31:06;;;;;;;13.03;5.60;;;;;;;3.37;85.93;99911.43;127361;1092;104433;-81
2020/12/13 02:33:36;;;;;;;15.60;6.40;;;;;;;3.40;86.01;99915.91;127341;1092;104494;-80
2020/12/13 02:36:06;;;;;;;14.57;6.13;;;;;;;3.41;85.46;99908.20;127336;1092;104438;-83
2020/12/13 02:38:35;;;;;;;14.97;6.33;;;;;;;3.46;86.40;99913.65;127432;1092;104566;-80
2020/12/13 02:41:04;;;;;;;13.97;6.03;;;;;;;3.47;86.05;99905.03;127401;1092;104555;-81
2020/12/13 02:43:33;;;;;;;14.30;6.10;;;;;;;3.47;85.59;99914.53;127424;1091;104708;-81
2020/12/13 02:46:02;;;;;;;15.73;6.40;;;;;;;3.48;85.91;99917.20;127311;1091;104438;-82
2020/12/13 02:48:31;;;;;;;14.60;6.20;;;;;;;3.50;85.61;99915.58;127364;1092;104439;-80
2020/12/13 02:51:00;;;;;;;18.33;7.27;;;;;;;3.53;86.47;99917.45;127399;1091;104439;-80
2020/12/13 02:53:29;;;;;;;15.93;6.93;;;;;;;3.56;85.68;99915.91;127423;1091;104431;-79
2020/12/13 02:55:58;;;;;;;16.97;6.63;;;;;;;3.57;86.71;99917.70;127366;1091;104558;-80
2020/12/13 02:58:27;;;;;;;13.47;5.43;;;;;;;3.58;86.16;99915.99;127356;1092;104497;-80
2020/12/13 03:00:56;;;;;;;16.57;6.53;;;;;;;3.57;85.92;99917.70;127398;1091;104449;-86
2020/12/13 03:03:25;;;;;;;16.03;6.50;;;;;;;3.59;86.34;99910.01;127397;1092;104513;-84
2020/12/13 03:05:54;;;;;;;18.10;6.57;;;;;;;3.60;85.72;99917.87;127381;1091;104430;-81
2020/12/13 03:08:23;;;;;;;14.83;6.10;;;;;;;3.63;85.73;99921.44;127436;1092;104496;-81
2020/12/13 03:10:51;;;;;;;13.87;5.70;;;;;;;3.67;86.63;99920.80;127394;1091;104494;-80
2020/12/13 03:13:20;;;;;;;15.83;6.00;;;;;;;3.68;86.44;99912.22;127367;1092;104620;-80
2020/12/13 03:15:49;;;;;;;15.23;6.60;;;;;;;3.68;85.74;99926.08;127371;1092;104442;-81
2020/12/13 03:18:18;;;;;;;13.67;5.43;;;;;;;3.68;86.33;99927.78;127386;1092;104427;-81
2020/12/13 03:20:47;;;;;;;14.17;6.10;;;;;;;3.68;85.64;99922.59;127368;1091;104609;-81
2020/12/13 03:23:17;;;;;;;12.20;5.47;;;;;;;3.70;86.69;99920.97;127317;1092;104561;-82
2020/12/13 03:25:46;;;;;;;14.60;6.00;;;;;;;3.71;86.19;99917.54;127349;1092;104433;-80
2020/12/13 03:28:15;;;;;;;13.63;5.63;;;;;;;3.73;86.58;99927.20;127374;1092;104449;-83
2020/12/13 03:30:44;;;;;;;11.33;5.00;;;;;;;3.76;86.08;99931.67;127377;1092;104452;-81
2020/12/13 03:33:13;;;;;;;12.10;5.10;;;;;;;3.76;86.42;99926.48;127361;1091;104426;-81
2020/12/13 03:35:42;;;;;;;13.13;5.60;;;;;;;3.76;85.97;99931.67;127375;1092;104436;-81
2020/12/13 03:38:11;;;;;;;12.83;5.50;;;;;;;3.78;86.33;99930.05;127351;1092;104451;-82
2020/12/13 03:40:39;;;;;;;15.10;5.67;;;;;;;3.80;86.57;99931.02;127330;1092;104436;-87
2020/12/13 03:43:09;;;;;;;13.97;5.77;;;;;;;3.81;86.60;99927.62;127361;1091;104455;-83
2020/12/13 03:45:38;;;;;;;14.33;5.20;;;;;;;3.84;86.50;99932.09;127411;1092;104453;-87
2020/12/13 03:48:13;;;;;;;15.45;6.45;;;;;;;3.84;86.69;99919.99;127331;1091;104543;-82
2020/12/13 03:50:48;;;;;;;14.50;6.10;;;;;;;3.87;86.24;99934.84;127273;1092;104627;-80
2020/12/13 03:53:19;;;;;;;15.10;5.87;;;;;;;3.86;86.15;99927.86;127308;1092;104602;-82
2020/12/13 03:55:48;;;;;;;15.40;5.90;;;;;;;3.86;86.19;99930.45;127303;1091;104503;-82
2020/12/13 03:58:17;;;;;;;15.63;6.20;;;;;;;3.85;86.70;99929.58;127285;1092;104625;-81
2020/12/13 04:00:46;;;;;;;14.77;6.70;;;;;;;3.86;86.46;99933.94;127254;1093;104695;-84
2020/12/13 04:03:15;;;;;;;15.00;6.33;;;;;;;3.90;86.58;99940.20;127278;1094;104442;-82
2020/12/13 04:05:44;;;;;;;16.37;6.63;;;;;;;3.92;86.63;99936.86;127250;1092;104481;-83
2020/12/13 04:08:14;;;;;;;16.23;6.73;;;;;;;3.92;86.53;99934.27;127297;1092;104506;-80
2020/12/13 04:10:43;;;;;;;13.50;5.70;;;;;;;3.93;85.85;99928.27;127279;1092;104577;-79
2020/12/13 04:13:12;;;;;;;18.43;7.13;;;;;;;3.92;86.33;99931.66;127280;1092;104442;-81
2020/12/13 04:15:41;;;;;;;18.13;7.10;;;;;;;3.90;86.21;99933.30;127284;1091;104436;-81
2020/12/13 04:18:12;;;;;;;16.45;6.50;;;;;;;3.85;85.82;99929.58;127279;1092;104627;-80
2020/12/13 04:20:41;;;;;;;15.97;6.97;;;;;;;3.91;85.96;99936.78;127274;1092;104618;-80
2020/12/13 04:23:10;;;;;;;15.47;5.77;;;;;;;3.91;85.79;99940.29;127334;1091;104433;-80
2020/12/13 04:25:39;;;;;;;17.43;7.43;;;;;;;3.90;85.92;99935.02;127327;1092;104427;-83
2020/12/13 04:28:07;;;;;;;17.60;6.90;;;;;;;3.89;85.94;99938.41;127336;1093;104429;-81
2020/12/13 04:30:36;;;;;;;18.17;7.33;;;;;;;3.90;85.85;99938.48;127333;1092;104452;-81
2020/12/13 04:33:10;;;;;;;17.33;7.37;;;;;;;3.93;86.47;99940.37;127295;1093;104403;-82
2020/12/13 04:35:39;;;;;;;19.07;7.23;;;;;;;3.98;86.15;99944.09;127365;1091;104554;-80
2020/12/13 04:38:08;;;;;;;16.30;6.93;;;;;;;4.01;86.29;99946.85;127392;1092;104549;-81
2020/12/13 04:40:37;;;;;;;17.10;6.70;;;;;;;3.98;86.36;99949.28;127380;1092;104513;-83
2020/12/13 04:43:08;;;;;;;17.73;7.20;;;;;;;3.97;86.75;99950.08;127406;1092;104436;-83
2020/12/13 04:45:37;;;;;;;15.43;6.53;;;;;;;3.97;86.43;99939.70;127375;1092;104561;-85
2020/12/13 04:48:09;;;;;;;16.10;6.37;;;;;;;4.03;86.01;99941.73;127355;1092;104424;-86
2020/12/13 04:50:39;;;;;;;14.53;7.17;;;;;;;4.05;86.61;99947.89;127331;1092;104468;-82
2020/12/13 04:53:10;;;;;;;14.40;6.33;;;;;;;4.05;86.45;99946.22;127335;1092;104564;-82
2020/12/13 04:55:44;;;;;;;14.45;5.80;;;;;;;4.05;86.21;99941.02;127335;1092;104456;-81
2020/12/13 04:58:15;;;;;;;16.10;6.40;;;;;;;4.00;85.66;99942.45;127397;1092;104496;-82
2020/12/13 05:00:50;;;;;;;15.00;6.27;;;;;;;4.00;85.91;99942.45;127333;1093;104448;-83
2020/12/13 05:03:19;;;;;;;16.87;6.73;;;;;;;4.00;86.41;99936.39;127349;1092;104494;-85
2020/12/13 05:05:48;;;;;;;16.50;5.97;;;;;;;4.04;85.81;99948.73;127423;1092;104436;-82
2020/12/13 05:08:17;;;;;;;12.83;5.30;;;;;;;4.04;85.88;99951.32;127400;1091;104576;-82
2020/12/13 05:10:46;;;;;;;12.80;5.70;;;;;;;4.01;86.46;99948.56;127377;1091;104439;-82
2020/12/13 05:13:15;;;;;;;12.20;5.10;;;;;;;3.98;85.90;99949.28;127333;1092;104486;-82
2020/12/13 05:15:44;;;;;;;12.53;5.40;;;;;;;3.97;86.28;99939.70;127318;1092;104551;-83
2020/12/13 05:18:13;;;;;;;14.40;5.90;;;;;;;3.99;85.93;99944.97;127368;1092;104424;-82
2020/12/13 05:20:44;;;;;;;11.63;5.50;;;;;;;4.00;86.18;99939.86;127356;1091;104452;-81
2020/12/13 05:23:15;;;;;;;12.03;5.50;;;;;;;3.98;86.40;99945.80;127325;1091;104555;-83
2020/12/13 05:25:44;;;;;;;12.45;6.05;;;;;;;3.95;85.81;99946.52;127284;1092;104432;-81
2020/12/13 05:28:15;;;;;;;13.23;5.43;;;;;;;3.95;86.33;99951.72;127331;1092;104455;-82
2020/12/13 05:30:46;;;;;;;10.23;4.77;;;;;;;3.96;86.03;99950.91;127377;1092;104432;-83
2020/12/13 05:33:21;;;;;;;14.23;5.00;;;;;;;3.97;86.10;99960.47;127361;1091;104430;-82
2020/12/13 05:35:53;;;;;;;13.73;5.57;;;;;;;3.96;85.96;99956.99;127323;1092;104439;-83
2020/12/13 05:38:26;;;;;;;10.77;5.23;;;;;;;4.00;86.15;99962.34;127364;1092;104555;-82
2020/12/13 05:40:56;;;;;;;13.77;5.50;;;;;;;3.99;86.35;99963.14;127320;1092;104433;-81
2020/12/13 05:43:31;;;;;;;16.23;6.50;;;;;;;3.98;85.74;99953.59;127263;1092;104433;-81
2020/12/13 05:46:18;;;;;;;17.07;6.97;;;;;;;3.97;85.80;99955.27;127352;1092;104432;-84
2020/12/13 05:51:38;;;;;;;17.67;7.47;;;;;;;4.01;85.54;99961.55;127335;1092;104426;-80
2020/12/13 05:54:19;;;;;;;17.93;7.37;;;;;;;4.04;86.26;99972.98;127320;1092;104527;-82
2020/12/13 05:56:52;;;;;;;18.77;7.90;;;;;;;4.06;86.40;99967.86;127384;1092;104554;-81
2020/12/13 05:59:22;;;;;;;21.07;8.07;;;;;;;4.06;86.32;99978.25;127412;1092;104423;-80
2020/12/13 06:02:03;;;;;;;21.10;8.87;;;;;;;4.05;85.93;99977.38;127353;1092;104488;-82
2020/12/13 06:04:43;;;;;;;23.20;9.93;;;;;;;4.04;86.37;99979.88;127364;1092;104436;-83
2020/12/13 06:07:12;;;;;;;20.93;9.17;;;;;;;4.09;85.95;99993.99;127289;1091;104551;-83
2020/12/13 06:10:02;;;;;;;22.97;9.57;;;;;;;4.14;85.94;99996.03;127344;1092;104474;-81
2020/12/13 06:12:48;;;;;;;22.33;9.70;;;;;;;4.17;86.08;99997.88;127289;1092;104432;-81
2020/12/13 06:15:17;;;;;;;21.53;8.97;;;;;;;4.15;86.34;99983.94;127295;1092;104699;-80
2020/12/13 06:17:47;;;;;;;23.33;9.60;;;;;;;4.11;85.91;99997.55;127346;1092;104561;-80
2020/12/13 06:20:32;;;;;;;23.73;10.53;;;;;;;4.09;86.27;100000.06;127306;1092;104455;-82
2020/12/13 06:23:08;;;;;;;20.60;8.07;;;;;;;4.11;85.84;99994.95;127265;1092;104433;-81
2020/12/13 06:25:46;;;;;;;24.57;9.70;;;;;;;4.10;86.36;99993.20;127286;1092;104429;-80
2020/12/13 06:28:22;;;;;;;23.80;10.17;;;;;;;4.08;85.83;99985.32;127410;1092;104487;-81
2020/12/13 06:31:04;;;;;;;24.03;10.57;;;;;;;4.10;85.83;99980.21;127348;1092;104446;-82
2020/12/13 06:33:44;;;;;;;27.90;11.40;;;;;;;4.11;86.37;99984.57;127329;1092;104487;-81
2020/12/13 06:36:15;;;;;;;27.33;11.37;;;;;;;4.10;86.26;99986.28;127275;1092;104487;-80
2020/12/13 06:38:46;;;;;;;25.47;10.53;;;;;;;4.07;86.12;99985.23;127283;1091;104462;-82
2020/12/13 06:41:15;;;;;;;26.13;9.53;;;;;;;4.05;85.63;99985.16;127369;1092;104430;-80
2020/12/13 06:43:57;;;;;;;28.57;12.63;;;;;;;4.05;85.96;99985.16;127329;1092;104429;-83
2020/12/13 06:46:33;;;;;;;28.43;12.30;;;;;;;4.10;86.42;99981.09;127295;1092;104429;-81
2020/12/13 06:49:02;;;;;;;30.43;12.00;;;;;;;4.11;85.56;99988.08;127339;1091;104432;-83
2020/12/13 06:51:35;;;;;;;28.67;12.57;;;;;;;4.13;85.83;99985.56;127305;1092;104436;-80
2020/12/13 06:54:05;;;;;;;30.70;12.57;;;;;;;4.11;86.25;99985.48;127260;1092;104625;-80
2020/12/13 06:56:35;;;;;;;26.47;10.93;;;;;;;4.09;86.15;99986.20;127302;1092;104491;-79
2020/12/13 06:59:06;;;;;;;26.10;9.50;;;;;;;4.06;86.52;99993.83;127290;1092;104497;-79
2020/12/13 07:01:39;;;;;;;30.93;12.77;;;;;;;4.06;86.17;99991.23;127319;1092;104503;-80
2020/12/13 07:04:33;;;;;;;35.93;14.50;;;;;;;4.07;86.37;99980.93;127403;1092;104449;-83
2020/12/13 07:07:07;;;;;;;27.90;12.27;;;;;;;4.12;86.01;99981.17;127404;1092;104619;-81
2020/12/13 07:09:38;;;;;;;27.20;11.53;;;;;;;4.15;85.64;99994.33;127361;1091;104439;-80
2020/12/13 07:12:09;;;;;;;28.87;12.20;;;;;;;4.18;85.77;99996.20;127362;1091;104638;-80
2020/12/13 07:14:47;;;;;;;26.67;10.77;;;;;;;4.18;86.00;99989.30;127371;1092;104632;-80
2020/12/13 07:17:19;;;;;;;33.10;12.17;;;;;;;4.17;85.94;99997.00;127391;1092;104450;-81
2020/12/13 07:19:48;;;;;;;26.93;10.30;;;;;;;4.17;85.79;100002.19;127360;1091;104509;-81
2020/12/13 07:22:18;;;;;;;30.57;12.80;;;;;;;4.18;85.77;100001.39;127310;1092;104564;-81
2020/12/13 07:25:04;;;;;;;29.10;12.33;;;;;;;4.21;86.17;100007.63;127210;1092;104432;-80
2020/12/13 07:27:35;;;;;;;31.57;12.63;;;;;;;4.19;86.36;100011.86;127329;1092;104506;-80
2020/12/13 07:30:12;;;;;;;25.47;9.73;;;;;;;4.17;85.83;100009.98;127397;1091;104538;-80
2020/12/13 07:32:48;;;;;;;28.90;11.67;;;;;;;4.14;86.36;100009.02;127306;1092;104487;-81
2020/12/13 07:35:33;;;;;;;29.80;12.83;;;;;;;4.14;86.55;100014.22;127343;1092;104512;-82
2020/12/13 07:38:07;;;;;;;32.00;11.93;;;;;;;4.19;86.03;100011.86;127331;1092;104554;-82
2020/12/13 07:40:42;;;;;;;28.20;12.47;;;;;;;4.23;85.84;100010.31;127386;1092;104446;-81
2020/12/13 07:43:11;;;;;;;29.97;12.17;;;;;;;4.28;85.68;100012.32;127370;1092;104455;-84
2020/12/13 07:45:40;;;;;;;26.60;11.30;;;;;;;4.33;86.37;100004.77;127338;1092;104552;-83
2020/12/13 07:48:10;;;;;;;28.07;11.97;;;;;;;4.36;86.35;100014.44;127291;1092;104465;-83
2020/12/13 07:50:46;;;;;;;27.27;11.50;;;;;;;4.34;85.91;100006.56;127362;1092;104491;-82
2020/12/13 07:53:25;;;;;;;25.70;10.00;;;;;;;4.36;86.32;100004.05;127347;1091;104430;-82
2020/12/13 07:55:56;;;;;;;28.87;11.97;;;;;;;4.35;86.23;99999.66;127419;1092;104427;-84
2020/12/13 07:58:50;;;;;;;27.93;11.90;;;;;;;4.36;85.80;100011.84;127369;1091;104493;-82
2020/12/13 08:01:41;;;;;;;30.47;12.73;;;;;;;4.38;86.24;100005.93;127322;1092;104762;-82
2020/12/13 08:04:16;;;;;;;27.80;11.50;;;;;;;4.38;86.25;100007.61;127441;1092;104436;-83
2020/12/13 08:06:44;;;;;;;29.60;12.83;;;;;;;4.39;86.22;100019.80;127290;1091;104552;-84
2020/12/13 08:09:16;;;;;;;29.67;11.93;;;;;;;4.42;85.79;100013.05;127276;1092;104420;-81
2020/12/13 08:11:45;;;;;;;29.80;12.00;;;;;;;4.43;85.58;100014.84;127261;1092;104581;-83
2020/12/13 08:14:14;;;;;;;26.13;11.70;;;;;;;4.47;86.49;100029.80;127382;1092;104474;-82
2020/12/13 08:16:48;;;;;;;28.63;11.37;;;;;;;4.50;86.04;100029.04;127338;1092;104622;-83
2020/12/13 08:19:29;;;;;;;27.20;11.83;;;;;;;4.55;86.44;100027.59;127317;1092;104828;-83
2020/12/13 08:22:03;;;;;;;25.70;11.57;;;;;;;4.58;85.88;100032.04;127401;1092;104551;-84
2020/12/13 08:28:15;;;;;;;29.40;13.47;;;;;;;4.61;86.00;100032.20;127090;1093;103199;-81
2020/12/13 08:30:44;;;;;;;30.10;12.33;;;;;;;4.62;86.21;100032.28;127223;1091;104571;-79
2020/12/13 08:33:13;;;;;;;29.40;13.17;;;;;;;4.62;85.88;100037.48;127371;1092;104554;-83
2020/12/13 08:35:42;;;;;;;28.97;12.10;;;;;;;4.68;86.36;100045.59;127366;1092;104452;-85
2020/12/13 08:38:21;;;;;;;30.70;13.53;;;;;;;4.75;86.27;100041.59;127257;1092;104513;-85
2020/12/13 08:40:54;;;;;;;30.57;13.43;;;;;;;4.77;85.67;100036.48;127290;1092;103352;-83
2020/12/13 08:43:34;;;;;;;26.90;11.47;;;;;;;4.75;85.92;100035.52;127357;1091;104494;-82
2020/12/13 08:46:03;;;;;;;30.13;13.33;;;;;;;4.70;85.76;100024.00;127429;1092;104439;-80
2020/12/13 08:48:32;;;;;;;32.93;12.97;;;;;;;4.67;85.86;100025.64;127319;1092;104515;-81
2020/12/13 08:51:11;;;;;;;31.13;13.23;;;;;;;4.65;85.46;100028.95;127361;1092;104442;-79
2020/12/13 08:53:40;;;;;;;31.27;10.90;;;;;;;4.61;85.89;100027.00;127315;1092;104576;-79
2020/12/13 08:56:13;;;;;;;30.47;12.10;;;;;;;4.60;85.89;100025.24;127163;1092;104458;-81
2020/12/13 08:58:57;;;;;;;34.83;14.47;;;;;;;4.60;85.92;100025.24;127285;1092;104549;-84
2020/12/13 09:02:26;;;;;;;36.03;14.23;;;;;;;4.62;85.88;100027.08;127111;1095;104621;-83
2020/12/13 09:09:38;;;;;;;32.33;14.13;;;;;;;4.63;86.28;100026.28;126671;1098;104848;-83
2020/12/13 09:12:19;;;;;;;32.27;14.33;;;;;;;4.68;86.08;100018.72;126441;1098;104545;-82
2020/12/13 09:18:13;;;;;;;34.50;13.90;;;;;;;4.72;85.93;100012.88;126398;1102;104452;-83
2020/12/13 09:20:42;;;;;;;41.70;16.10;;;;;;;4.82;86.22;100028.11;126377;1100;104638;-85
2020/12/13 09:23:13;;;;;;;37.63;15.40;;;;;;;4.91;85.98;100024.19;126494;1098;104478;-84
2020/12/13 09:25:44;;;;;;;37.27;14.73;;;;;;;4.92;85.80;100039.86;126300;1098;104497;-84
2020/12/13 09:28:29;;;;;;;36.23;14.67;;;;;;;4.93;85.88;100031.26;126342;1098;104608;-84
2020/12/13 09:31:20;;;;;;;36.80;15.60;;;;;;;4.94;86.41;100029.54;126572;1098;103024;-84
2020/12/13 09:33:49;;;;;;;33.07;14.33;;;;;;;4.99;86.04;100035.89;126618;1099;104501;-84
2020/12/13 09:36:18;;;;;;;34.53;14.93;;;;;;;4.99;85.91;100026.38;126864;1099;104612;-83
2020/12/13 09:38:47;;;;;;;36.60;15.07;;;;;;;5.00;85.99;100015.16;126377;1098;104445;-83
2020/12/13 09:41:23;;;;;;;36.43;15.27;;;;;;;5.02;86.03;100012.64;126716;1095;104689;-84
2020/12/13 09:43:54;;;;;;;33.70;15.00;;;;;;;5.03;85.78;100015.32;126739;1095;104606;-84
2020/12/13 09:46:26;;;;;;;36.17;16.48;;;;;;;5.02;86.10;100018.72;126845;1095;104446;-84
2020/12/13 09:48:56;;;;;;;30.00;12.57;;;;;;;5.01;85.75;100016.92;126860;1095;104688;-83
2020/12/13 09:51:25;;;;;;;36.15;15.90;;;;;;;4.97;86.21;100012.41;126810;1095;104596;-83
2020/12/13 09:54:08;;;;;;;35.03;15.57;;;;;;;4.98;85.98;100018.49;126851;1095;104500;-84
2020/12/13 09:56:44;;;;;;;38.87;15.93;;;;;;;4.96;86.17;100015.81;127214;1092;104435;-84
2020/12/13 09:59:19;;;;;;;35.50;16.67;;;;;;;5.01;85.90;100009.13;127316;1092;104449;-84
2020/12/13 10:01:48;;;;;;;33.60;14.67;;;;;;;5.03;85.87;100017.92;127238;1091;104487;-84
2020/12/13 10:04:23;;;;;;;38.20;16.40;;;;;;;5.07;86.07;100010.27;127435;1092;104564;-84
2020/12/13 10:07:11;;;;;;;33.43;14.63;;;;;;;5.03;86.09;100012.72;127401;1092;104548;-84
2020/12/13 10:09:40;;;;;;;33.97;14.20;;;;;;;5.00;85.99;100007.36;127329;1092;104429;-82
2020/12/13 10:12:28;;;;;;;32.23;13.67;;;;;;;4.94;86.23;100006.14;127317;1092;104656;-80
2020/12/13 10:15:06;;;;;;;25.17;10.77;;;;;;;4.90;85.72;99997.30;127375;1092;104487;-82
2020/12/13 10:17:35;;;;;;;36.00;15.77;;;;;;;4.89;86.04;99999.83;127383;1092;104914;-84
2020/12/13 10:24:35;;;;;;;30.83;13.50;;;;;;;4.95;85.97;100003.62;127138;1095;104416;-84
2020/12/13 10:27:05;;;;;;;31.60;13.63;;;;;;;4.94;86.05;99996.66;126758;1096;104576;-83
2020/12/13 10:29:34;;;;;;;31.87;14.27;;;;;;;4.93;86.12;99999.17;126819;1095;104445;-86
2020/12/13 10:32:03;;;;;;;29.13;12.90;;;;;;;4.96;86.29;100004.53;126907;1095;104574;-83
2020/12/13 10:34:32;;;;;;;27.97;10.70;;;;;;;4.98;86.22;99998.57;126777;1095;104378;-81
2020/12/13 10:37:02;;;;;;;29.80;13.00;;;;;;;4.93;85.92;99997.46;126829;1095;104557;-79
2020/12/13 10:39:31;;;;;;;30.60;13.77;;;;;;;4.91;85.93;99992.98;126781;1094;104446;-81
2020/12/13 10:42:05;;;;;;;26.90;10.70;;;;;;;4.88;85.91;99993.75;126828;1095;104835;-82
2020/12/13 10:44:39;;;;;;;26.90;11.30;;;;;;;4.83;85.93;99996.11;126605;1095;104445;-80
2020/12/13 10:47:42;;;;;;;26.23;11.30;;;;;;;4.85;86.12;99989.27;126675;1095;104436;-82
2020/12/13 10:50:19;;;;;;;29.13;11.83;;;;;;;4.86;85.89;99988.47;126804;1095;104640;-83
2020/12/13 10:52:51;;;;;;;27.23;11.97;;;;;;;4.91;86.30;99978.30;126849;1095;104478;-82
2020/12/13 10:55:20;;;;;;;19.03;7.57;;;;;;;4.93;86.15;99980.98;127119;1091;104433;-82
2020/12/13 10:57:50;;;;;;;26.73;11.47;;;;;;;4.92;86.28;99973.98;127341;1092;104768;-81
2020/12/13 11:00:21;;;;;;;26.47;10.53;;;;;;;4.92;85.96;99971.37;127359;1092;104442;-82
2020/12/13 11:02:50;;;;;;;24.67;11.10;;;;;;;4.95;85.90;99969.81;127352;1092;104439;-85
2020/12/13 11:05:19;;;;;;;24.57;10.70;;;;;;;4.99;85.75;99968.28;127369;1092;104436;-81
2020/12/13 11:08:08;;;;;;;23.63;10.50;;;;;;;4.98;86.23;99976.89;127326;1091;104439;-81
2020/12/13 11:10:38;;;;;;;24.13;8.43;;;;;;;4.99;86.25;99984.77;127344;1092;104433;-83
2020/12/13 11:13:10;;;;;;;22.97;11.07;;;;;;;4.96;86.32;99982.02;127362;1091;104446;-82
2020/12/13 11:15:48;;;;;;;26.67;11.10;;;;;;;4.97;85.76;99978.61;127368;1092;104551;-82
2020/12/13 11:18:19;;;;;;;24.47;10.83;;;;;;;4.97;86.16;99983.81;127373;1092;104606;-83
2020/12/13 11:20:49;;;;;;;25.47;10.77;;;;;;;5.01;85.80;99983.13;127357;1092;104430;-81
2020/12/13 11:23:22;;;;;;;28.90;12.37;;;;;;;5.00;85.99;99985.64;127328;1092;104436;-80
2020/12/13 11:25:54;;;;;;;30.67;12.27;;;;;;;4.95;86.13;99985.42;127370;1091;104490;-81
2020/12/13 11:28:28;;;;;;;28.63;12.03;;;;;;;4.98;85.88;99980.38;127342;1092;104435;-83
2020/12/13 11:30:57;;;;;;;27.27;11.67;;;;;;;5.03;86.15;99986.71;127300;1092;104914;-82
2020/12/13 11:34:04;;;;;;;30.20;12.83;;;;;;;5.01;86.44;99977.04;127196;1091;104458;-83
2020/12/13 11:36:34;;;;;;;29.63;13.00;;;;;;;5.06;86.24;99996.35;127232;1093;104513;-83
2020/12/13 11:39:06;;;;;;;35.03;14.37;;;;;;;5.07;86.14;99992.95;127380;1092;104432;-80
2020/12/13 11:41:36;;;;;;;30.93;14.23;;;;;;;5.04;85.86;99988.47;127350;1092;104513;-81
2020/12/13 11:44:05;;;;;;;29.87;14.47;;;;;;;5.06;86.04;99990.27;127335;1093;104541;-83
2020/12/13 11:46:34;;;;;;;29.87;14.50;;;;;;;5.11;86.12;99996.58;127309;1092;104594;-83
2020/12/13 11:49:03;;;;;;;38.80;14.67;;;;;;;5.15;86.23;99996.81;127319;1092;104429;-83
2020/12/13 11:51:32;;;;;;;35.40;14.13;;;;;;;5.19;86.15;99993.55;127369;1092;104436;-82
2020/12/13 11:54:01;;;;;;;35.10;14.73;;;;;;;5.19;85.90;99984.87;127315;1092;104631;-83
2020/12/13 11:56:30;;;;;;;34.50;14.53;;;;;;;5.18;85.88;99983.08;127367;1091;104433;-80